createdAt,value
2017-12-25T10:43:44.054Z,8.13
2017-12-25T10:46:12.395Z,9.80
2017-12-25T10:48:40.281Z,10.90
2017-12-25T10:51:15.753Z,9.48
2017-12-25T10:53:44.129Z,9.95
2017-12-25T10:56:12.482Z,10.02
2017-12-25T10:58:41.205Z,8.75
2017-12-25T11:01:09.562Z,8.02
2017-12-25T11:03:37.846Z,8.77
2017-12-25T11:06:14.232Z,9.13
2017-12-25T11:08:43.472Z,9.55
2017-12-25T11:11:12.418Z,9.35
2017-12-25T11:13:40.604Z,8.75
2017-12-25T11:16:08.198Z,9.13
2017-12-25T11:32:20.918Z,8.88
2017-12-25T11:34:52.821Z,8.40
2017-12-25T11:37:24.314Z,8.70
2017-12-25T11:39:58.232Z,9.30
2017-12-25T11:42:30.497Z,8.30
2017-12-25T11:45:05.206Z,9.37
2017-12-25T12:26:53.045Z,7.87
2017-12-25T12:29:20.725Z,7.97
2017-12-25T12:31:48.328Z,7.03
2017-12-25T12:34:16.470Z,8.60
2017-12-25T12:36:44.276Z,8.48
2017-12-25T12:39:11.852Z,7.63
2017-12-25T12:41:39.636Z,8.73
2017-12-25T12:44:10.895Z,8.60
2017-12-25T12:46:38.627Z,7.40
2017-12-25T12:49:06.203Z,8.17
2017-12-25T12:51:33.881Z,9.47
2017-12-25T12:54:01.416Z,8.83
2017-12-25T12:56:28.936Z,8.43
2017-12-25T12:58:56.440Z,8.37
2017-12-25T13:01:24.066Z,8.30
2017-12-25T13:03:52.228Z,8.27
2017-12-25T13:06:19.798Z,8.00
2017-12-25T13:08:49.381Z,8.60
2017-12-25T13:11:17.821Z,8.80
2017-12-25T13:13:45.345Z,7.90
2017-12-25T13:16:12.861Z,7.63
2017-12-25T13:18:40.412Z,8.47
2017-12-25T13:21:08.469Z,7.77
2017-12-25T13:23:36.047Z,8.00
2017-12-25T13:26:03.630Z,7.70
2017-12-25T13:28:31.282Z,8.50
2017-12-25T13:30:58.900Z,9.20
2017-12-25T13:33:26.414Z,8.43
2017-12-25T13:35:53.959Z,8.83
2017-12-25T13:38:22.736Z,8.50
2017-12-25T13:40:51.035Z,8.45
2017-12-25T13:43:19.222Z,8.90
2017-12-25T13:45:46.730Z,8.03
2017-12-25T13:48:15.224Z,8.90
2017-12-25T13:50:42.939Z,8.90
2017-12-25T13:53:12.982Z,9.97
2017-12-25T13:55:40.491Z,11.33
2017-12-25T13:58:08.013Z,11.03
2017-12-25T14:00:35.577Z,12.70
2017-12-25T14:03:03.267Z,13.13
2017-12-25T14:05:31.064Z,10.73
2017-12-25T14:07:59.803Z,9.03
2017-12-25T14:10:27.595Z,9.07
2017-12-25T14:12:55.190Z,8.30
2017-12-25T14:15:22.825Z,9.23
2017-12-25T14:17:51.036Z,9.23
2017-12-25T14:20:19.043Z,7.90
2017-12-25T14:22:47.876Z,9.30
2017-12-25T14:25:16.992Z,8.80
2017-12-25T14:27:44.805Z,8.60
2017-12-25T14:30:12.442Z,9.43
2017-12-25T14:32:39.976Z,8.63
2017-12-25T14:35:07.523Z,9.00
2017-12-25T14:37:35.094Z,8.60
2017-12-25T14:40:02.617Z,8.87
2017-12-25T14:42:30.753Z,8.80
2017-12-25T14:44:59.295Z,8.80
2017-12-25T14:47:27.082Z,8.37
2017-12-25T14:49:54.828Z,9.00
2017-12-25T14:52:26.707Z,10.13
2017-12-25T14:54:54.308Z,8.67
2017-12-25T14:57:22.480Z,8.95
2017-12-25T14:59:50.100Z,8.97
2017-12-25T15:02:18.091Z,9.23
2017-12-25T15:04:45.725Z,9.20
2017-12-25T15:07:13.430Z,9.37
2017-12-25T15:09:41.845Z,9.40
2017-12-25T15:12:10.083Z,9.47
2017-12-25T15:14:37.643Z,9.33
2017-12-25T15:17:05.280Z,10.03
2017-12-25T15:19:32.867Z,10.53
2017-12-25T15:22:01.319Z,10.30
2017-12-25T15:24:29.934Z,11.80
2017-12-25T15:26:57.793Z,10.73
2017-12-25T15:29:25.541Z,10.90
2017-12-25T15:31:53.925Z,10.45
2017-12-25T15:34:21.539Z,11.38
2017-12-25T15:36:50.173Z,11.70
2017-12-25T15:39:17.855Z,11.85
2017-12-25T15:41:45.692Z,12.30
2017-12-25T15:44:13.222Z,10.75
2017-12-25T15:46:40.737Z,11.20
2017-12-25T15:49:08.238Z,12.10
2017-12-25T15:51:37.128Z,11.87
2017-12-25T15:54:05.981Z,11.85
2017-12-25T15:56:33.518Z,10.85
2017-12-25T15:59:01.959Z,12.60
2017-12-25T16:01:29.542Z,11.95
2017-12-25T16:03:58.278Z,12.20
2017-12-25T16:06:27.073Z,12.35
2017-12-25T16:08:55.126Z,11.80
2017-12-25T16:11:22.818Z,12.88
2017-12-25T16:13:50.334Z,12.07
2017-12-25T16:16:18.860Z,13.18
2017-12-25T16:18:46.353Z,13.90
2017-12-25T16:21:13.999Z,15.30
2017-12-25T16:23:44.115Z,14.27
2017-12-25T16:26:11.679Z,19.87
2017-12-25T16:28:39.643Z,27.52
2017-12-25T16:31:07.162Z,21.55
2017-12-25T16:33:35.609Z,19.42
2017-12-25T16:36:03.212Z,19.52
2017-12-25T16:38:30.755Z,19.12
2017-12-25T16:40:58.275Z,19.40
2017-12-25T16:43:26.488Z,19.62
2017-12-25T16:45:54.104Z,20.25
2017-12-25T16:48:21.586Z,17.70
2017-12-25T16:50:50.022Z,20.08
2017-12-25T16:55:53.010Z,21.08
2017-12-25T16:58:24.564Z,18.67
2017-12-25T17:00:52.233Z,17.67
2017-12-25T17:03:19.850Z,16.10
2017-12-25T17:05:47.381Z,15.27
2017-12-25T17:08:15.146Z,16.08
2017-12-25T17:10:43.461Z,20.48
2017-12-25T17:13:11.030Z,22.62
2017-12-25T17:15:39.580Z,24.48
2017-12-25T17:18:07.183Z,20.98
2017-12-25T17:20:35.749Z,18.50
2017-12-25T17:23:03.349Z,17.00
2017-12-25T17:25:30.973Z,17.05
2017-12-25T17:28:02.548Z,16.60
2017-12-25T17:30:30.253Z,17.70
2017-12-25T17:32:59.665Z,17.50
2017-12-25T17:35:28.460Z,16.50
2017-12-25T17:37:56.105Z,17.25
2017-12-25T17:40:24.297Z,16.95
2017-12-25T17:42:54.646Z,16.83
2017-12-25T17:45:22.427Z,15.02
2017-12-25T17:47:50.048Z,15.90
2017-12-25T17:50:17.702Z,14.00
2017-12-25T17:52:45.280Z,14.52
2017-12-25T17:55:13.834Z,14.93
2017-12-25T17:57:41.714Z,15.32
2017-12-25T18:00:09.356Z,17.25
2017-12-25T18:02:37.674Z,15.15
2017-12-25T18:05:05.285Z,14.02
2017-12-25T18:07:32.841Z,28.90
2017-12-25T18:10:02.238Z,23.45
2017-12-25T18:12:31.996Z,30.33
2017-12-25T18:15:00.116Z,31.37
2017-12-25T18:17:27.967Z,29.98
2017-12-25T18:19:55.541Z,21.75
2017-12-25T18:22:23.882Z,19.58
2017-12-25T18:24:51.539Z,17.23
2017-12-25T18:27:19.140Z,17.20
2017-12-25T18:29:47.316Z,15.98
2017-12-25T18:32:15.915Z,15.05
2017-12-25T18:34:43.426Z,15.10
2017-12-25T18:37:11.258Z,14.13
2017-12-25T18:39:39.119Z,15.02
2017-12-25T18:42:07.704Z,15.15
2017-12-25T18:44:35.219Z,14.98
2017-12-25T18:47:03.758Z,14.10
2017-12-25T18:49:35.162Z,14.18
2017-12-25T18:52:02.767Z,14.93
2017-12-25T18:54:31.523Z,13.85
2017-12-25T18:56:59.110Z,14.85
2017-12-25T18:59:26.880Z,17.20
2017-12-25T19:01:54.990Z,14.38
2017-12-25T19:04:23.566Z,13.68
2017-12-25T19:06:51.275Z,13.75
2017-12-25T19:09:18.932Z,17.45
2017-12-25T19:11:47.561Z,19.30
2017-12-25T19:14:15.219Z,17.55
2017-12-25T19:16:42.744Z,17.77
2017-12-25T19:19:10.301Z,18.37
2017-12-25T19:21:38.713Z,20.62
2017-12-25T19:24:06.925Z,20.58
2017-12-25T19:26:35.085Z,21.58
2017-12-25T19:29:04.329Z,19.77
2017-12-25T19:31:33.006Z,16.33
2017-12-25T19:34:01.754Z,16.00
2017-12-25T19:36:29.306Z,16.83
2017-12-25T19:38:56.839Z,17.23
2017-12-25T19:41:24.446Z,21.67
2017-12-25T19:43:52.632Z,22.95
2017-12-25T19:46:20.753Z,16.98
2017-12-25T19:48:49.064Z,19.42
2017-12-25T19:51:16.811Z,15.80
2017-12-25T19:53:44.523Z,15.70
2017-12-25T19:56:12.482Z,15.90
2017-12-25T19:58:40.033Z,15.15
2017-12-25T20:01:11.298Z,14.20
2017-12-25T20:03:39.524Z,14.55
2017-12-25T20:06:07.352Z,13.00
2017-12-25T20:08:35.989Z,14.07
2017-12-25T20:11:04.504Z,14.15
2017-12-25T20:13:32.883Z,18.08
2017-12-25T20:16:00.542Z,19.33
2017-12-25T20:18:28.242Z,16.85
2017-12-25T20:20:56.038Z,15.57
2017-12-25T20:23:23.638Z,14.45
2017-12-25T20:25:51.254Z,13.15
2017-12-25T20:28:19.016Z,12.98
2017-12-25T20:30:46.640Z,13.30
2017-12-25T20:33:14.293Z,13.30
2017-12-25T20:35:43.194Z,11.52
2017-12-25T20:38:26.238Z,14.95
2017-12-25T20:40:53.796Z,16.12
2017-12-25T20:43:21.451Z,17.12
2017-12-25T20:45:51.632Z,16.85
2017-12-25T20:48:20.485Z,17.17
2017-12-25T20:50:48.147Z,15.68
2017-12-25T20:53:15.762Z,16.33
2017-12-25T20:55:44.330Z,13.75
2017-12-25T20:58:12.034Z,14.82
2017-12-25T21:00:40.716Z,14.90
2017-12-25T21:03:09.148Z,15.75
2017-12-25T21:05:37.767Z,15.65
2017-12-25T21:08:06.981Z,15.18
2017-12-25T21:10:35.065Z,14.05
2017-12-25T21:13:03.258Z,15.55
2017-12-25T21:15:30.811Z,16.48
2017-12-25T21:17:58.497Z,15.85
2017-12-25T21:20:26.029Z,17.10
2017-12-25T21:22:55.271Z,17.95
2017-12-25T21:25:22.817Z,17.35
2017-12-25T21:27:51.739Z,17.95
2017-12-25T21:30:23.590Z,19.12
2017-12-25T21:32:52.398Z,23.40
2017-12-25T21:35:21.874Z,21.37
2017-12-25T21:37:49.685Z,20.12
2017-12-25T21:40:17.512Z,19.95
2017-12-25T21:42:45.404Z,20.45
2017-12-25T21:45:15.825Z,21.08
2017-12-25T21:47:43.686Z,20.73
2017-12-25T21:50:22.482Z,21.92
2017-12-25T21:52:52.961Z,20.80
2017-12-25T21:55:21.309Z,19.65
2017-12-25T21:57:50.447Z,19.02
2017-12-25T22:00:21.576Z,15.70
2017-12-25T22:02:52.249Z,15.82
2017-12-25T22:05:20.684Z,16.25
2017-12-25T22:07:49.485Z,15.35
2017-12-25T22:10:18.676Z,15.38
2017-12-25T22:12:47.289Z,15.52
2017-12-25T22:15:15.584Z,14.70
2017-12-25T22:17:43.319Z,16.37
2017-12-25T22:20:11.659Z,15.68
2017-12-25T22:22:39.858Z,15.75
2017-12-25T22:25:08.794Z,15.63
2017-12-25T22:27:38.781Z,16.12
2017-12-25T22:30:07.992Z,18.05
2017-12-25T22:32:36.144Z,18.08
2017-12-25T22:35:04.618Z,19.77
2017-12-25T22:37:32.617Z,19.75
2017-12-25T22:40:01.252Z,20.15
2017-12-25T22:42:28.835Z,19.77
2017-12-25T22:44:56.347Z,19.50
2017-12-25T22:47:24.630Z,17.10
2017-12-25T22:49:52.430Z,17.48
2017-12-25T22:52:20.077Z,17.70
2017-12-25T22:54:47.755Z,15.57
2017-12-25T22:57:15.471Z,16.45
2017-12-25T22:59:43.230Z,16.12
2017-12-25T23:02:11.148Z,16.15
2017-12-25T23:04:38.836Z,16.73
2017-12-25T23:07:08.048Z,16.05
2017-12-25T23:09:36.773Z,15.93
2017-12-25T23:12:04.426Z,17.33
2017-12-25T23:14:32.291Z,16.25
2017-12-25T23:17:00.815Z,16.10
2017-12-25T23:19:28.651Z,15.75
2017-12-25T23:21:56.326Z,16.10
2017-12-25T23:24:24.168Z,15.88
2017-12-25T23:26:52.865Z,16.27
2017-12-25T23:29:21.420Z,15.60
2017-12-25T23:31:49.938Z,17.60
2017-12-25T23:34:17.531Z,16.30
2017-12-25T23:36:46.029Z,14.75
2017-12-25T23:39:14.230Z,14.40
2017-12-25T23:41:41.861Z,16.30
2017-12-25T23:44:09.999Z,16.10
2017-12-25T23:46:41.620Z,15.00
2017-12-25T23:49:10.129Z,14.98
2017-12-25T23:51:38.832Z,14.80
2017-12-25T23:54:06.530Z,14.05
2017-12-25T23:56:36.243Z,15.32
2017-12-25T23:59:04.238Z,15.80
